sensor_id;sensor_type;location;lat;lon;timestamp;P1;durP1;ratioP1;P2;durP2;ratioP2
38865;SDS011;62686;48.984;8.394;2023-07-13T00:01:06;7.82;;;1.60;;
38865;SDS011;62686;48.984;8.394;2023-07-13T00:03:34;4.80;;;1.65;;
38865;SDS011;62686;48.984;8.394;2023-07-13T00:06:04;5.68;;;1.60;;
38865;SDS011;62686;48.984;8.394;2023-07-13T00:08:33;4.28;;;1.70;;
38865;SDS011;62686;48.984;8.394;2023-07-13T00:11:01;4.95;;;1.38;;
38865;SDS011;62686;48.984;8.394;2023-07-13T00:13:30;3.65;;;1.63;;
38865;SDS011;62686;48.984;8.394;2023-07-13T00:15:58;5.78;;;1.92;;
38865;SDS011;62686;48.984;8.394;2023-07-13T00:18:27;8.23;;;1.70;;
38865;SDS011;62686;48.984;8.394;2023-07-13T00:20:56;5.72;;;1.30;;
38865;SDS011;62686;48.984;8.394;2023-07-13T00:23:32;2.78;;;1.40;;
38865;SDS011;62686;48.984;8.394;2023-07-13T00:26:01;7.35;;;1.98;;
38865;SDS011;62686;48.984;8.394;2023-07-13T00:28:30;6.60;;;1.80;;
38865;SDS011;62686;48.984;8.394;2023-07-13T00:30:58;7.95;;;1.60;;
38865;SDS011;62686;48.984;8.394;2023-07-13T00:33:26;3.38;;;1.52;;
38865;SDS011;62686;48.984;8.394;2023-07-13T00:35:55;7.80;;;1.50;;
38865;SDS011;62686;48.984;8.394;2023-07-13T00:38:24;5.65;;;1.60;;
38865;SDS011;62686;48.984;8.394;2023-07-13T00:40:53;3.95;;;1.63;;
38865;SDS011;62686;48.984;8.394;2023-07-13T00:43:22;4.07;;;2.08;;
38865;SDS011;62686;48.984;8.394;2023-07-13T00:48:50;5.85;;;1.48;;
38865;SDS011;62686;48.984;8.394;2023-07-13T00:51:22;6.90;;;1.67;;
38865;SDS011;62686;48.984;8.394;2023-07-13T00:53:56;2.85;;;1.63;;
38865;SDS011;62686;48.984;8.394;2023-07-13T00:56:28;6.57;;;1.75;;
38865;SDS011;62686;48.984;8.394;2023-07-13T00:58:57;6.95;;;1.67;;
38865;SDS011;62686;48.984;8.394;2023-07-13T01:01:27;2.65;;;1.45;;
38865;SDS011;62686;48.984;8.394;2023-07-13T01:03:55;5.63;;;1.55;;
38865;SDS011;62686;48.984;8.394;2023-07-13T01:06:23;6.20;;;1.88;;
38865;SDS011;62686;48.984;8.394;2023-07-13T01:08:52;5.35;;;1.42;;
38865;SDS011;62686;48.984;8.394;2023-07-13T01:11:21;5.43;;;1.58;;
38865;SDS011;62686;48.984;8.394;2023-07-13T01:13:51;3.38;;;1.60;;
38865;SDS011;62686;48.984;8.394;2023-07-13T01:16:22;5.35;;;1.83;;
38865;SDS011;62686;48.984;8.394;2023-07-13T01:18:53;4.93;;;1.60;;
38865;SDS011;62686;48.984;8.394;2023-07-13T01:21:26;5.82;;;1.67;;
38865;SDS011;62686;48.984;8.394;2023-07-13T01:23:56;5.10;;;1.70;;
38865;SDS011;62686;48.984;8.394;2023-07-13T01:26:25;4.55;;;1.90;;
38865;SDS011;62686;48.984;8.394;2023-07-13T01:28:53;6.72;;;1.50;;
38865;SDS011;62686;48.984;8.394;2023-07-13T01:31:23;4.38;;;1.90;;
38865;SDS011;62686;48.984;8.394;2023-07-13T01:33:51;3.50;;;1.50;;
38865;SDS011;62686;48.984;8.394;2023-07-13T01:36:20;4.85;;;1.95;;
38865;SDS011;62686;48.984;8.394;2023-07-13T01:38:50;4.25;;;1.70;;
38865;SDS011;62686;48.984;8.394;2023-07-13T01:41:18;2.70;;;1.60;;
38865;SDS011;62686;48.984;8.394;2023-07-13T01:43:47;2.17;;;1.67;;
38865;SDS011;62686;48.984;8.394;2023-07-13T01:46:15;4.78;;;1.70;;
38865;SDS011;62686;48.984;8.394;2023-07-13T01:48:48;3.65;;;1.70;;
38865;SDS011;62686;48.984;8.394;2023-07-13T01:51:18;2.38;;;1.48;;
38865;SDS011;62686;48.984;8.394;2023-07-13T01:53:47;3.22;;;1.85;;
38865;SDS011;62686;48.984;8.394;2023-07-13T01:56:17;5.35;;;1.77;;
38865;SDS011;62686;48.984;8.394;2023-07-13T01:58:46;4.70;;;1.52;;
38865;SDS011;62686;48.984;8.394;2023-07-13T02:01:15;4.35;;;1.60;;
38865;SDS011;62686;48.984;8.394;2023-07-13T02:03:43;3.45;;;1.85;;
38865;SDS011;62686;48.984;8.394;2023-07-13T02:06:13;3.38;;;1.67;;
38865;SDS011;62686;48.984;8.394;2023-07-13T02:08:41;3.80;;;2.00;;
38865;SDS011;62686;48.984;8.394;2023-07-13T02:11:09;4.82;;;1.80;;
38865;SDS011;62686;48.984;8.394;2023-07-13T02:13:39;3.63;;;1.60;;
38865;SDS011;62686;48.984;8.394;2023-07-13T02:16:07;5.07;;;2.20;;
38865;SDS011;62686;48.984;8.394;2023-07-13T02:18:35;4.32;;;1.90;;
38865;SDS011;62686;48.984;8.394;2023-07-13T02:21:04;6.60;;;2.10;;
38865;SDS011;62686;48.984;8.394;2023-07-13T02:23:32;4.88;;;1.90;;
38865;SDS011;62686;48.984;8.394;2023-07-13T02:26:01;5.10;;;1.63;;
38865;SDS011;62686;48.984;8.394;2023-07-13T02:28:31;2.30;;;1.90;;
38865;SDS011;62686;48.984;8.394;2023-07-13T02:31:05;4.57;;;1.92;;
38865;SDS011;62686;48.984;8.394;2023-07-13T02:33:35;6.72;;;1.92;;
38865;SDS011;62686;48.984;8.394;2023-07-13T02:36:03;4.60;;;2.03;;
38865;SDS011;62686;48.984;8.394;2023-07-13T02:38:33;9.38;;;1.98;;
38865;SDS011;62686;48.984;8.394;2023-07-13T02:41:02;2.83;;;1.75;;
38865;SDS011;62686;48.984;8.394;2023-07-13T02:43:31;3.95;;;1.80;;
38865;SDS011;62686;48.984;8.394;2023-07-13T02:45:59;4.50;;;1.95;;
38865;SDS011;62686;48.984;8.394;2023-07-13T02:48:34;7.70;;;2.10;;
38865;SDS011;62686;48.984;8.394;2023-07-13T02:51:03;3.55;;;1.83;;
38865;SDS011;62686;48.984;8.394;2023-07-13T02:53:32;5.35;;;1.85;;
38865;SDS011;62686;48.984;8.394;2023-07-13T02:56:02;4.95;;;1.90;;
38865;SDS011;62686;48.984;8.394;2023-07-13T02:58:31;4.75;;;2.00;;
38865;SDS011;62686;48.984;8.394;2023-07-13T03:00:59;4.93;;;1.92;;
38865;SDS011;62686;48.984;8.394;2023-07-13T03:03:34;3.47;;;1.50;;
38865;SDS011;62686;48.984;8.394;2023-07-13T03:06:03;8.52;;;1.95;;
38865;SDS011;62686;48.984;8.394;2023-07-13T03:08:34;5.15;;;1.90;;
38865;SDS011;62686;48.984;8.394;2023-07-13T03:11:03;6.07;;;2.25;;
38865;SDS011;62686;48.984;8.394;2023-07-13T03:13:34;5.45;;;2.13;;
38865;SDS011;62686;48.984;8.394;2023-07-13T03:16:02;6.47;;;2.35;;
38865;SDS011;62686;48.984;8.394;2023-07-13T03:18:31;5.32;;;2.22;;
38865;SDS011;62686;48.984;8.394;2023-07-13T03:21:00;3.10;;;2.10;;
38865;SDS011;62686;48.984;8.394;2023-07-13T03:23:29;3.38;;;1.85;;
38865;SDS011;62686;48.984;8.394;2023-07-13T03:26:01;4.47;;;2.00;;
38865;SDS011;62686;48.984;8.394;2023-07-13T03:28:29;5.03;;;2.35;;
38865;SDS011;62686;48.984;8.394;2023-07-13T03:31:01;5.30;;;2.20;;
38865;SDS011;62686;48.984;8.394;2023-07-13T03:33:31;8.10;;;2.15;;
38865;SDS011;62686;48.984;8.394;2023-07-13T03:36:01;5.65;;;1.85;;
38865;SDS011;62686;48.984;8.394;2023-07-13T03:38:30;4.38;;;2.10;;
38865;SDS011;62686;48.984;8.394;2023-07-13T03:40:58;5.32;;;2.28;;
38865;SDS011;62686;48.984;8.394;2023-07-13T03:43:25;3.85;;;1.92;;
38865;SDS011;62686;48.984;8.394;2023-07-13T03:45:54;7.88;;;2.47;;
38865;SDS011;62686;48.984;8.394;2023-07-13T03:48:22;3.90;;;1.95;;
38865;SDS011;62686;48.984;8.394;2023-07-13T03:50:50;5.82;;;2.15;;
38865;SDS011;62686;48.984;8.394;2023-07-13T03:53:20;4.82;;;2.33;;
38865;SDS011;62686;48.984;8.394;2023-07-13T03:55:48;6.50;;;2.05;;
38865;SDS011;62686;48.984;8.394;2023-07-13T03:58:24;3.72;;;1.90;;
38865;SDS011;62686;48.984;8.394;2023-07-13T04:00:55;4.93;;;2.42;;
38865;SDS011;62686;48.984;8.394;2023-07-13T04:03:23;3.67;;;2.45;;
38865;SDS011;62686;48.984;8.394;2023-07-13T04:05:55;4.57;;;2.30;;
38865;SDS011;62686;48.984;8.394;2023-07-13T04:08:28;4.13;;;2.13;;
38865;SDS011;62686;48.984;8.394;2023-07-13T04:10:57;6.72;;;2.33;;
38865;SDS011;62686;48.984;8.394;2023-07-13T04:13:26;8.40;;;2.47;;
38865;SDS011;62686;48.984;8.394;2023-07-13T04:15:55;5.00;;;1.85;;
38865;SDS011;62686;48.984;8.394;2023-07-13T04:18:24;3.67;;;2.03;;
38865;SDS011;62686;48.984;8.394;2023-07-13T04:20:52;3.95;;;2.05;;
38865;SDS011;62686;48.984;8.394;2023-07-13T04:23:20;3.53;;;1.80;;
38865;SDS011;62686;48.984;8.394;2023-07-13T04:25:51;6.82;;;2.20;;
38865;SDS011;62686;48.984;8.394;2023-07-13T04:28:20;5.88;;;2.08;;
38865;SDS011;62686;48.984;8.394;2023-07-13T04:30:50;4.93;;;2.05;;
38865;SDS011;62686;48.984;8.394;2023-07-13T04:33:19;6.47;;;1.85;;
38865;SDS011;62686;48.984;8.394;2023-07-13T04:35:48;9.63;;;2.45;;
38865;SDS011;62686;48.984;8.394;2023-07-13T04:38:20;7.03;;;1.65;;
38865;SDS011;62686;48.984;8.394;2023-07-13T04:40:52;8.20;;;1.80;;
38865;SDS011;62686;48.984;8.394;2023-07-13T04:43:23;5.10;;;1.70;;
38865;SDS011;62686;48.984;8.394;2023-07-13T04:45:53;3.70;;;1.77;;
38865;SDS011;62686;48.984;8.394;2023-07-13T04:48:21;3.20;;;1.77;;
38865;SDS011;62686;48.984;8.394;2023-07-13T04:50:56;4.93;;;1.80;;
38865;SDS011;62686;48.984;8.394;2023-07-13T04:53:25;8.70;;;1.75;;
38865;SDS011;62686;48.984;8.394;2023-07-13T04:55:55;5.20;;;1.88;;
38865;SDS011;62686;48.984;8.394;2023-07-13T04:58:24;3.83;;;1.67;;
38865;SDS011;62686;48.984;8.394;2023-07-13T05:00:53;6.55;;;1.80;;
38865;SDS011;62686;48.984;8.394;2023-07-13T05:03:28;3.20;;;1.90;;
38865;SDS011;62686;48.984;8.394;2023-07-13T05:05:57;2.72;;;1.40;;
38865;SDS011;62686;48.984;8.394;2023-07-13T05:08:26;3.10;;;1.55;;
38865;SDS011;62686;48.984;8.394;2023-07-13T05:10:56;3.60;;;1.55;;
38865;SDS011;62686;48.984;8.394;2023-07-13T05:13:26;3.22;;;1.70;;
38865;SDS011;62686;48.984;8.394;2023-07-13T05:15:57;3.10;;;1.60;;
38865;SDS011;62686;48.984;8.394;2023-07-13T05:18:30;5.78;;;1.30;;
38865;SDS011;62686;48.984;8.394;2023-07-13T05:20:59;4.85;;;1.70;;
38865;SDS011;62686;48.984;8.394;2023-07-13T05:23:29;4.05;;;1.67;;
38865;SDS011;62686;48.984;8.394;2023-07-13T05:25:59;4.30;;;1.83;;
38865;SDS011;62686;48.984;8.394;2023-07-13T05:28:28;4.57;;;1.73;;
38865;SDS011;62686;48.984;8.394;2023-07-13T05:30:57;4.78;;;1.70;;
38865;SDS011;62686;48.984;8.394;2023-07-13T05:33:26;3.92;;;1.70;;
38865;SDS011;62686;48.984;8.394;2023-07-13T05:35:55;6.65;;;1.80;;
38865;SDS011;62686;48.984;8.394;2023-07-13T05:38:23;6.15;;;1.92;;
38865;SDS011;62686;48.984;8.394;2023-07-13T05:40:53;4.07;;;1.73;;
38865;SDS011;62686;48.984;8.394;2023-07-13T05:43:24;5.30;;;1.95;;
38865;SDS011;62686;48.984;8.394;2023-07-13T05:45:53;4.60;;;1.50;;
38865;SDS011;62686;48.984;8.394;2023-07-13T05:48:24;4.22;;;1.48;;
38865;SDS011;62686;48.984;8.394;2023-07-13T05:50:52;2.55;;;1.70;;
38865;SDS011;62686;48.984;8.394;2023-07-13T05:53:20;8.45;;;1.60;;
38865;SDS011;62686;48.984;8.394;2023-07-13T05:55:49;6.03;;;1.80;;
38865;SDS011;62686;48.984;8.394;2023-07-13T05:58:19;8.57;;;1.58;;
38865;SDS011;62686;48.984;8.394;2023-07-13T06:00:58;4.35;;;1.50;;
38865;SDS011;62686;48.984;8.394;2023-07-13T06:03:28;3.53;;;1.70;;
38865;SDS011;62686;48.984;8.394;2023-07-13T06:05:56;5.63;;;1.75;;
38865;SDS011;62686;48.984;8.394;2023-07-13T06:08:26;3.55;;;1.65;;
38865;SDS011;62686;48.984;8.394;2023-07-13T06:10:55;7.65;;;1.58;;
38865;SDS011;62686;48.984;8.394;2023-07-13T06:13:32;5.60;;;1.30;;
38865;SDS011;62686;48.984;8.394;2023-07-13T06:16:03;2.65;;;1.23;;
38865;SDS011;62686;48.984;8.394;2023-07-13T06:18:31;4.10;;;1.50;;
38865;SDS011;62686;48.984;8.394;2023-07-13T06:21:00;4.18;;;1.40;;
38865;SDS011;62686;48.984;8.394;2023-07-13T06:23:29;4.45;;;1.50;;
38865;SDS011;62686;48.984;8.394;2023-07-13T06:25:57;6.68;;;1.35;;
38865;SDS011;62686;48.984;8.394;2023-07-13T06:28:25;8.27;;;1.85;;
38865;SDS011;62686;48.984;8.394;2023-07-13T06:30:54;4.35;;;1.58;;
38865;SDS011;62686;48.984;8.394;2023-07-13T06:33:23;2.85;;;1.52;;
38865;SDS011;62686;48.984;8.394;2023-07-13T06:35:52;2.70;;;1.17;;
38865;SDS011;62686;48.984;8.394;2023-07-13T06:38:21;3.70;;;1.40;;
38865;SDS011;62686;48.984;8.394;2023-07-13T06:40:49;5.20;;;1.20;;
38865;SDS011;62686;48.984;8.394;2023-07-13T06:43:17;4.75;;;1.30;;
38865;SDS011;62686;48.984;8.394;2023-07-13T06:45:47;5.13;;;1.20;;
38865;SDS011;62686;48.984;8.394;2023-07-13T06:48:16;2.35;;;1.10;;
38865;SDS011;62686;48.984;8.394;2023-07-13T06:50:47;5.40;;;1.42;;
38865;SDS011;62686;48.984;8.394;2023-07-13T06:53:17;2.85;;;1.30;;
38865;SDS011;62686;48.984;8.394;2023-07-13T06:55:46;5.78;;;1.60;;
38865;SDS011;62686;48.984;8.394;2023-07-13T06:58:15;6.15;;;1.35;;
38865;SDS011;62686;48.984;8.394;2023-07-13T07:00:44;6.55;;;1.73;;
38865;SDS011;62686;48.984;8.394;2023-07-13T07:03:12;9.27;;;1.73;;
38865;SDS011;62686;48.984;8.394;2023-07-13T07:05:40;7.22;;;1.38;;
38865;SDS011;62686;48.984;8.394;2023-07-13T07:08:10;3.15;;;1.40;;
38865;SDS011;62686;48.984;8.394;2023-07-13T07:10:40;5.13;;;1.60;;
38865;SDS011;62686;48.984;8.394;2023-07-13T07:13:08;5.60;;;1.65;;
38865;SDS011;62686;48.984;8.394;2023-07-13T07:15:36;2.58;;;1.40;;
38865;SDS011;62686;48.984;8.394;2023-07-13T07:18:04;4.07;;;1.70;;
38865;SDS011;62686;48.984;8.394;2023-07-13T07:20:33;3.17;;;1.20;;
38865;SDS011;62686;48.984;8.394;2023-07-13T07:23:01;4.40;;;1.40;;
38865;SDS011;62686;48.984;8.394;2023-07-13T07:25:31;4.75;;;1.20;;
38865;SDS011;62686;48.984;8.394;2023-07-13T07:28:03;5.03;;;1.60;;
38865;SDS011;62686;48.984;8.394;2023-07-13T07:30:34;5.55;;;1.60;;
38865;SDS011;62686;48.984;8.394;2023-07-13T07:33:05;5.40;;;1.80;;
38865;SDS011;62686;48.984;8.394;2023-07-13T07:35:33;6.32;;;1.30;;
38865;SDS011;62686;48.984;8.394;2023-07-13T07:38:03;5.13;;;1.60;;
38865;SDS011;62686;48.984;8.394;2023-07-13T07:40:35;8.38;;;1.48;;
38865;SDS011;62686;48.984;8.394;2023-07-13T07:43:07;4.03;;;1.60;;
38865;SDS011;62686;48.984;8.394;2023-07-13T07:45:36;3.92;;;1.20;;
38865;SDS011;62686;48.984;8.394;2023-07-13T07:48:05;4.03;;;1.58;;
38865;SDS011;62686;48.984;8.394;2023-07-13T07:50:36;8.60;;;1.70;;
38865;SDS011;62686;48.984;8.394;2023-07-13T07:53:05;3.28;;;1.30;;
38865;SDS011;62686;48.984;8.394;2023-07-13T07:55:38;4.13;;;1.70;;
38865;SDS011;62686;48.984;8.394;2023-07-13T07:58:25;4.57;;;1.70;;
38865;SDS011;62686;48.984;8.394;2023-07-13T08:01:01;5.57;;;1.50;;
38865;SDS011;62686;48.984;8.394;2023-07-13T08:03:33;3.25;;;1.33;;
38865;SDS011;62686;48.984;8.394;2023-07-13T08:06:05;2.53;;;1.25;;
38865;SDS011;62686;48.984;8.394;2023-07-13T08:08:36;7.03;;;1.40;;
38865;SDS011;62686;48.984;8.394;2023-07-13T08:11:06;2.25;;;1.20;;
38865;SDS011;62686;48.984;8.394;2023-07-13T08:13:38;5.85;;;1.25;;
38865;SDS011;62686;48.984;8.394;2023-07-13T08:16:06;2.47;;;1.00;;
38865;SDS011;62686;48.984;8.394;2023-07-13T08:18:34;2.38;;;1.20;;
38865;SDS011;62686;48.984;8.394;2023-07-13T08:21:03;2.38;;;1.20;;
38865;SDS011;62686;48.984;8.394;2023-07-13T08:23:32;3.28;;;1.23;;
38865;SDS011;62686;48.984;8.394;2023-07-13T08:26:00;3.10;;;1.25;;
38865;SDS011;62686;48.984;8.394;2023-07-13T08:28:31;2.67;;;1.17;;
38865;SDS011;62686;48.984;8.394;2023-07-13T08:31:01;2.78;;;1.25;;
38865;SDS011;62686;48.984;8.394;2023-07-13T08:36:22;2.03;;;1.00;;
38865;SDS011;62686;48.984;8.394;2023-07-13T08:41:23;4.85;;;1.17;;
38865;SDS011;62686;48.984;8.394;2023-07-13T08:43:58;3.78;;;1.40;;
38865;SDS011;62686;48.984;8.394;2023-07-13T08:46:55;2.00;;;1.17;;
38865;SDS011;62686;48.984;8.394;2023-07-13T08:49:26;3.17;;;1.38;;
38865;SDS011;62686;48.984;8.394;2023-07-13T08:51:55;2.85;;;1.40;;
38865;SDS011;62686;48.984;8.394;2023-07-13T08:54:28;2.15;;;1.10;;
38865;SDS011;62686;48.984;8.394;2023-07-13T08:57:01;4.43;;;1.20;;
38865;SDS011;62686;48.984;8.394;2023-07-13T09:05:01;3.92;;;1.20;;
38865;SDS011;62686;48.984;8.394;2023-07-13T09:07:35;4.63;;;1.23;;
38865;SDS011;62686;48.984;8.394;2023-07-13T09:10:14;3.70;;;0.95;;
38865;SDS011;62686;48.984;8.394;2023-07-13T09:12:46;1.95;;;1.05;;
38865;SDS011;62686;48.984;8.394;2023-07-13T09:15:22;4.88;;;1.30;;
38865;SDS011;62686;48.984;8.394;2023-07-13T09:18:01;2.38;;;1.15;;
38865;SDS011;62686;48.984;8.394;2023-07-13T09:20:39;4.78;;;1.25;;
38865;SDS011;62686;48.984;8.394;2023-07-13T09:23:15;3.17;;;1.13;;
38865;SDS011;62686;48.984;8.394;2023-07-13T09:25:58;3.88;;;1.10;;
38865;SDS011;62686;48.984;8.394;2023-07-13T09:28:33;4.22;;;1.00;;
38865;SDS011;62686;48.984;8.394;2023-07-13T09:31:06;1.60;;;0.90;;
38865;SDS011;62686;48.984;8.394;2023-07-13T09:33:39;4.70;;;1.30;;
38865;SDS011;62686;48.984;8.394;2023-07-13T09:36:19;1.88;;;0.93;;
38865;SDS011;62686;48.984;8.394;2023-07-13T09:38:53;3.17;;;1.27;;
38865;SDS011;62686;48.984;8.394;2023-07-13T09:41:28;1.80;;;1.08;;
38865;SDS011;62686;48.984;8.394;2023-07-13T09:44:08;4.50;;;1.10;;
38865;SDS011;62686;48.984;8.394;2023-07-13T09:46:38;2.30;;;1.10;;
38865;SDS011;62686;48.984;8.394;2023-07-13T09:49:11;2.95;;;1.35;;
38865;SDS011;62686;48.984;8.394;2023-07-13T09:51:49;3.88;;;1.10;;
38865;SDS011;62686;48.984;8.394;2023-07-13T09:54:26;2.33;;;1.10;;
38865;SDS011;62686;48.984;8.394;2023-07-13T09:56:55;3.08;;;1.15;;
38865;SDS011;62686;48.984;8.394;2023-07-13T09:59:26;2.40;;;1.00;;
38865;SDS011;62686;48.984;8.394;2023-07-13T10:01:58;4.85;;;1.20;;
38865;SDS011;62686;48.984;8.394;2023-07-13T10:04:28;4.25;;;1.20;;
38865;SDS011;62686;48.984;8.394;2023-07-13T10:07:06;1.52;;;1.00;;
38865;SDS011;62686;48.984;8.394;2023-07-13T10:09:49;5.03;;;1.10;;
38865;SDS011;62686;48.984;8.394;2023-07-13T10:12:20;2.75;;;0.95;;
38865;SDS011;62686;48.984;8.394;2023-07-13T10:14:51;2.53;;;1.10;;
38865;SDS011;62686;48.984;8.394;2023-07-13T10:17:29;1.58;;;1.02;;
38865;SDS011;62686;48.984;8.394;2023-07-13T10:19:59;2.85;;;1.10;;
38865;SDS011;62686;48.984;8.394;2023-07-13T10:22:36;6.88;;;1.17;;
38865;SDS011;62686;48.984;8.394;2023-07-13T10:25:17;4.75;;;1.15;;
38865;SDS011;62686;48.984;8.394;2023-07-13T10:27:52;2.75;;;1.10;;
38865;SDS011;62686;48.984;8.394;2023-07-13T10:30:25;2.55;;;0.95;;
38865;SDS011;62686;48.984;8.394;2023-07-13T10:35:56;3.50;;;1.25;;
38865;SDS011;62686;48.984;8.394;2023-07-13T10:38:33;4.25;;;1.30;;
38865;SDS011;62686;48.984;8.394;2023-07-13T10:41:02;5.88;;;1.35;;
38865;SDS011;62686;48.984;8.394;2023-07-13T10:43:34;3.95;;;1.45;;
38865;SDS011;62686;48.984;8.394;2023-07-13T10:46:05;4.03;;;1.33;;
38865;SDS011;62686;48.984;8.394;2023-07-13T10:48:36;2.85;;;1.25;;
38865;SDS011;62686;48.984;8.394;2023-07-13T10:51:06;1.90;;;1.00;;
38865;SDS011;62686;48.984;8.394;2023-07-13T10:53:38;3.13;;;1.20;;
38865;SDS011;62686;48.984;8.394;2023-07-13T10:56:16;3.95;;;1.30;;
38865;SDS011;62686;48.984;8.394;2023-07-13T10:59:01;4.30;;;1.40;;
38865;SDS011;62686;48.984;8.394;2023-07-13T11:01:41;5.03;;;1.48;;
38865;SDS011;62686;48.984;8.394;2023-07-13T11:04:18;6.60;;;1.50;;
38865;SDS011;62686;48.984;8.394;2023-07-13T11:06:49;3.55;;;1.45;;
38865;SDS011;62686;48.984;8.394;2023-07-13T11:09:32;4.32;;;1.20;;
38865;SDS011;62686;48.984;8.394;2023-07-13T11:12:08;4.38;;;1.40;;
38865;SDS011;62686;48.984;8.394;2023-07-13T11:15:04;5.00;;;1.35;;
38865;SDS011;62686;48.984;8.394;2023-07-13T11:17:38;3.88;;;1.52;;
38865;SDS011;62686;48.984;8.394;2023-07-13T11:20:20;4.43;;;1.30;;
38865;SDS011;62686;48.984;8.394;2023-07-13T11:23:15;4.53;;;1.30;;
38865;SDS011;62686;48.984;8.394;2023-07-13T11:25:56;2.50;;;1.30;;
38865;SDS011;62686;48.984;8.394;2023-07-13T11:28:26;3.13;;;1.10;;
38865;SDS011;62686;48.984;8.394;2023-07-13T11:31:01;2.78;;;1.30;;
38865;SDS011;62686;48.984;8.394;2023-07-13T11:33:49;1.80;;;0.93;;
38865;SDS011;62686;48.984;8.394;2023-07-13T11:36:24;2.47;;;1.15;;
38865;SDS011;62686;48.984;8.394;2023-07-13T11:39:11;2.78;;;1.10;;
38865;SDS011;62686;48.984;8.394;2023-07-13T11:41:48;5.20;;;1.40;;
38865;SDS011;62686;48.984;8.394;2023-07-13T11:44:20;4.13;;;1.20;;
38865;SDS011;62686;48.984;8.394;2023-07-13T11:46:51;2.05;;;1.08;;
38865;SDS011;62686;48.984;8.394;2023-07-13T11:49:22;1.85;;;1.05;;
38865;SDS011;62686;48.984;8.394;2023-07-13T11:51:53;3.92;;;0.95;;
38865;SDS011;62686;48.984;8.394;2023-07-13T11:54:23;4.22;;;1.20;;
38865;SDS011;62686;48.984;8.394;2023-07-13T11:56:58;4.57;;;1.30;;
38865;SDS011;62686;48.984;8.394;2023-07-13T11:59:32;4.28;;;1.35;;
38865;SDS011;62686;48.984;8.394;2023-07-13T12:02:08;5.60;;;1.30;;
38865;SDS011;62686;48.984;8.394;2023-07-13T12:04:58;2.33;;;1.42;;
38865;SDS011;62686;48.984;8.394;2023-07-13T12:07:29;3.90;;;1.35;;
38865;SDS011;62686;48.984;8.394;2023-07-13T12:10:00;7.65;;;1.27;;
38865;SDS011;62686;48.984;8.394;2023-07-13T12:12:31;3.10;;;1.20;;
38865;SDS011;62686;48.984;8.394;2023-07-13T12:14:59;3.15;;;1.20;;
38865;SDS011;62686;48.984;8.394;2023-07-13T12:17:28;3.22;;;1.30;;
38865;SDS011;62686;48.984;8.394;2023-07-13T12:19:56;2.25;;;1.20;;
38865;SDS011;62686;48.984;8.394;2023-07-13T12:22:25;2.08;;;1.10;;
38865;SDS011;62686;48.984;8.394;2023-07-13T12:24:53;4.55;;;1.40;;
38865;SDS011;62686;48.984;8.394;2023-07-13T12:27:24;2.60;;;1.38;;
38865;SDS011;62686;48.984;8.394;2023-07-13T12:29:58;2.95;;;1.30;;
38865;SDS011;62686;48.984;8.394;2023-07-13T12:32:27;3.38;;;1.20;;
38865;SDS011;62686;48.984;8.394;2023-07-13T12:35:04;3.28;;;1.25;;
38865;SDS011;62686;48.984;8.394;2023-07-13T12:37:43;4.13;;;1.38;;
38865;SDS011;62686;48.984;8.394;2023-07-13T12:40:13;4.20;;;1.30;;
38865;SDS011;62686;48.984;8.394;2023-07-13T12:42:42;4.10;;;1.10;;
38865;SDS011;62686;48.984;8.394;2023-07-13T12:45:18;3.15;;;1.17;;
38865;SDS011;62686;48.984;8.394;2023-07-13T12:47:48;6.78;;;1.33;;
38865;SDS011;62686;48.984;8.394;2023-07-13T12:50:20;2.92;;;1.33;;
38865;SDS011;62686;48.984;8.394;2023-07-13T12:52:51;2.65;;;1.27;;
38865;SDS011;62686;48.984;8.394;2023-07-13T12:55:21;3.90;;;1.10;;
38865;SDS011;62686;48.984;8.394;2023-07-13T12:57:50;2.38;;;1.45;;
38865;SDS011;62686;48.984;8.394;2023-07-13T13:00:23;4.25;;;1.30;;
38865;SDS011;62686;48.984;8.394;2023-07-13T13:02:55;2.95;;;1.25;;
38865;SDS011;62686;48.984;8.394;2023-07-13T13:05:33;1.08;;;0.93;;
38865;SDS011;62686;48.984;8.394;2023-07-13T13:08:04;2.55;;;1.45;;
38865;SDS011;62686;48.984;8.394;2023-07-13T13:10:33;4.53;;;1.52;;
38865;SDS011;62686;48.984;8.394;2023-07-13T13:13:02;3.40;;;1.25;;
38865;SDS011;62686;48.984;8.394;2023-07-13T13:15:32;2.90;;;1.40;;
38865;SDS011;62686;48.984;8.394;2023-07-13T13:18:00;5.18;;;1.50;;
38865;SDS011;62686;48.984;8.394;2023-07-13T13:20:29;3.55;;;1.15;;
38865;SDS011;62686;48.984;8.394;2023-07-13T13:22:57;3.00;;;1.48;;
38865;SDS011;62686;48.984;8.394;2023-07-13T13:25:26;4.18;;;1.05;;
38865;SDS011;62686;48.984;8.394;2023-07-13T13:27:54;2.25;;;1.02;;
38865;SDS011;62686;48.984;8.394;2023-07-13T13:30:22;2.83;;;1.25;;
38865;SDS011;62686;48.984;8.394;2023-07-13T13:32:52;3.30;;;1.00;;
38865;SDS011;62686;48.984;8.394;2023-07-13T13:35:20;2.33;;;1.05;;
38865;SDS011;62686;48.984;8.394;2023-07-13T13:37:48;4.65;;;1.23;;
38865;SDS011;62686;48.984;8.394;2023-07-13T13:40:18;3.83;;;1.20;;
38865;SDS011;62686;48.984;8.394;2023-07-13T13:42:48;3.08;;;1.00;;
38865;SDS011;62686;48.984;8.394;2023-07-13T13:45:18;3.92;;;1.15;;
38865;SDS011;62686;48.984;8.394;2023-07-13T13:47:47;4.20;;;1.20;;
38865;SDS011;62686;48.984;8.394;2023-07-13T13:50:18;2.08;;;1.00;;
38865;SDS011;62686;48.984;8.394;2023-07-13T13:52:48;3.03;;;0.90;;
38865;SDS011;62686;48.984;8.394;2023-07-13T13:55:18;3.33;;;1.35;;
38865;SDS011;62686;48.984;8.394;2023-07-13T13:57:50;5.25;;;1.35;;
38865;SDS011;62686;48.984;8.394;2023-07-13T14:00:19;3.00;;;1.40;;
38865;SDS011;62686;48.984;8.394;2023-07-13T14:02:48;5.50;;;1.40;;
38865;SDS011;62686;48.984;8.394;2023-07-13T14:05:20;3.70;;;1.10;;
38865;SDS011;62686;48.984;8.394;2023-07-13T14:07:50;2.90;;;1.13;;
38865;SDS011;62686;48.984;8.394;2023-07-13T14:10:19;2.38;;;1.20;;
38865;SDS011;62686;48.984;8.394;2023-07-13T14:12:50;6.85;;;1.23;;
38865;SDS011;62686;48.984;8.394;2023-07-13T14:15:21;2.55;;;1.30;;
38865;SDS011;62686;48.984;8.394;2023-07-13T14:17:51;3.45;;;1.17;;
38865;SDS011;62686;48.984;8.394;2023-07-13T14:20:22;6.30;;;1.30;;
38865;SDS011;62686;48.984;8.394;2023-07-13T14:22:51;4.00;;;1.20;;
38865;SDS011;62686;48.984;8.394;2023-07-13T14:25:21;4.47;;;1.20;;
38865;SDS011;62686;48.984;8.394;2023-07-13T14:27:51;5.63;;;1.20;;
38865;SDS011;62686;48.984;8.394;2023-07-13T14:30:25;2.55;;;0.93;;
38865;SDS011;62686;48.984;8.394;2023-07-13T14:32:54;3.67;;;1.10;;
38865;SDS011;62686;48.984;8.394;2023-07-13T14:35:23;3.33;;;1.00;;
38865;SDS011;62686;48.984;8.394;2023-07-13T14:37:52;2.83;;;1.27;;
38865;SDS011;62686;48.984;8.394;2023-07-13T14:40:21;1.67;;;1.02;;
38865;SDS011;62686;48.984;8.394;2023-07-13T14:42:57;1.88;;;1.20;;
38865;SDS011;62686;48.984;8.394;2023-07-13T14:45:26;1.98;;;1.10;;
38865;SDS011;62686;48.984;8.394;2023-07-13T14:47:55;2.97;;;1.17;;
38865;SDS011;62686;48.984;8.394;2023-07-13T14:50:27;3.53;;;1.27;;
38865;SDS011;62686;48.984;8.394;2023-07-13T14:52:58;4.55;;;1.40;;
38865;SDS011;62686;48.984;8.394;2023-07-13T14:55:26;2.05;;;1.20;;
38865;SDS011;62686;48.984;8.394;2023-07-13T14:57:54;4.70;;;1.20;;
38865;SDS011;62686;48.984;8.394;2023-07-13T15:00:23;3.92;;;1.17;;
38865;SDS011;62686;48.984;8.394;2023-07-13T15:02:53;2.15;;;1.00;;
38865;SDS011;62686;48.984;8.394;2023-07-13T15:05:26;5.05;;;1.35;;
38865;SDS011;62686;48.984;8.394;2023-07-13T15:07:57;2.22;;;0.93;;
38865;SDS011;62686;48.984;8.394;2023-07-13T15:10:27;1.30;;;0.98;;
38865;SDS011;62686;48.984;8.394;2023-07-13T15:12:58;4.60;;;1.42;;
38865;SDS011;62686;48.984;8.394;2023-07-13T15:15:30;2.35;;;1.10;;
38865;SDS011;62686;48.984;8.394;2023-07-13T15:18:08;1.92;;;1.02;;
38865;SDS011;62686;48.984;8.394;2023-07-13T15:20:39;2.15;;;1.10;;
38865;SDS011;62686;48.984;8.394;2023-07-13T15:23:08;3.13;;;1.40;;
38865;SDS011;62686;48.984;8.394;2023-07-13T15:25:37;4.15;;;1.13;;
38865;SDS011;62686;48.984;8.394;2023-07-13T15:28:06;5.22;;;1.27;;